Time;durP1;ratioP1;P1;durP2;ratioP2;P2;SDS_P1;SDS_P2;PMS_P1;PMS_P2;Temp;Humidity;BMP_temperature;BMP_pressure;BME280_temperature;BME280_humidity;BME280_pressure;Samples;Min_cycle;Max_cycle;Signal;HPM_P1;HPM_P2
2022/03/19 00:00:51;;;;;;;33.70;19.30;;;;;;;6.24;61.08;98317.00;4998355;28;20053;-66
2022/03/19 00:03:18;;;;;;;28.45;15.20;;;;;;;6.20;60.56;98316.00;4986594;28;20053;-66
2022/03/19 00:05:44;;;;;;;34.63;17.65;;;;;;;6.10;61.30;98318.88;4986743;28;20097;-65
2022/03/19 00:08:11;;;;;;;31.88;17.17;;;;;;;6.08;61.71;98312.94;4989025;28;20045;-65
2022/03/19 00:10:36;;;;;;;35.78;18.13;;;;;;;6.05;61.52;98289.03;4984948;28;20046;-66
2022/03/19 00:13:03;;;;;;;32.10;18.73;;;;;;;5.96;62.48;98313.41;4983721;28;20041;-66
2022/03/19 00:15:28;;;;;;;29.08;17.85;;;;;;;5.79;63.45;98297.59;4981815;28;20112;-66
2022/03/19 00:17:54;;;;;;;34.60;20.00;;;;;;;5.83;63.03;98278.78;4992096;28;20054;-65
2022/03/19 00:20:20;;;;;;;28.73;16.60;;;;;;;5.79;63.22;98281.28;4989773;28;20060;-66
2022/03/19 00:22:45;;;;;;;31.67;17.17;;;;;;;5.79;63.02;98275.03;4999917;28;20050;-65
2022/03/19 00:25:12;;;;;;;32.00;17.33;;;;;;;5.76;63.12;98287.31;4997014;28;20073;-65
2022/03/19 00:27:40;;;;;;;34.38;18.00;;;;;;;5.76;62.82;98281.84;5005101;28;20034;-63
2022/03/19 00:30:05;;;;;;;29.33;18.52;;;;;;;5.80;62.81;98279.34;4999048;28;20137;-64
2022/03/19 00:32:31;;;;;;;31.38;18.95;;;;;;;5.80;62.20;98285.63;4997718;28;20062;-63
2022/03/19 00:34:57;;;;;;;32.95;18.02;;;;;;;5.74;62.27;98284.06;4995923;28;20491;-64
2022/03/19 00:37:23;;;;;;;31.38;17.35;;;;;;;5.64;63.47;98274.19;4980137;28;20854;-65
2022/03/19 00:39:48;;;;;;;34.35;19.02;;;;;;;5.71;62.81;98279.25;4998584;28;20132;-64
2022/03/19 00:42:14;;;;;;;37.03;17.05;;;;;;;5.68;62.84;98288.78;4981034;28;20142;-64
2022/03/19 00:44:39;;;;;;;34.30;18.65;;;;;;;5.60;63.61;98273.16;4984191;28;20046;-64
2022/03/19 00:47:05;;;;;;;34.60;19.15;;;;;;;5.67;62.68;98283.63;4978469;28;20093;-66
2022/03/19 00:49:30;;;;;;;38.67;20.00;;;;;;;5.63;62.99;98278.00;4983729;28;20100;-63
2022/03/19 00:51:56;;;;;;;33.08;19.90;;;;;;;5.61;62.91;98260.38;4983879;28;20084;-64
2022/03/19 00:54:21;;;;;;;35.75;18.13;;;;;;;5.55;63.69;98274.03;4978944;28;20119;-64
2022/03/19 00:56:47;;;;;;;33.72;19.20;;;;;;;5.55;63.74;98281.38;4990534;28;20035;-66
2022/03/19 00:59:13;;;;;;;32.35;19.20;;;;;;;5.44;64.22;98271.75;4983009;28;20053;-64
2022/03/19 01:01:38;;;;;;;41.70;19.55;;;;;;;5.34;65.20;98278.94;4987314;28;20039;-63
2022/03/19 01:04:04;;;;;;;36.45;21.42;;;;;;;5.39;64.50;98261.78;4994730;28;20042;-65
2022/03/19 01:06:29;;;;;;;33.90;19.10;;;;;;;5.35;64.99;98267.00;5000824;28;20129;-65
2022/03/19 01:08:55;;;;;;;31.08;19.08;;;;;;;5.28;65.38;98274.69;5003585;28;20120;-64
2022/03/19 01:11:23;;;;;;;32.78;19.20;;;;;;;5.22;65.31;98265.03;4988511;28;20041;-63
2022/03/19 01:13:55;;;;;;;41.15;19.08;;;;;;;5.21;65.74;98268.81;4995837;28;20058;-65
2022/03/19 01:16:21;;;;;;;35.45;18.40;;;;;;;5.21;65.35;98276.97;4997590;28;20038;-64
2022/03/19 01:18:48;;;;;;;34.88;17.05;;;;;;;5.14;65.92;98266.47;5002687;28;20068;-65
2022/03/19 01:21:15;;;;;;;34.03;18.13;;;;;;;5.14;65.63;98274.63;4997137;28;20136;-63
2022/03/19 01:23:40;;;;;;;40.47;20.60;;;;;;;5.10;65.82;98270.06;5003364;28;20451;-65
2022/03/19 01:26:06;;;;;;;33.40;17.73;;;;;;;5.11;65.70;98264.34;4975945;28;20066;-66
2022/03/19 01:28:31;;;;;;;31.77;18.15;;;;;;;5.09;65.97;98269.25;4987586;28;20046;-65
2022/03/19 01:30:56;;;;;;;36.15;19.50;;;;;;;5.04;66.00;98266.63;5007607;28;20034;-65
2022/03/19 01:33:22;;;;;;;33.47;19.67;;;;;;;5.05;65.42;98275.56;5012636;28;20121;-65
2022/03/19 01:35:47;;;;;;;34.75;19.05;;;;;;;5.04;65.75;98268.50;4995625;28;20034;-63
2022/03/19 01:38:12;;;;;;;37.10;19.92;;;;;;;5.03;65.30;98269.63;4993019;28;20046;-64
2022/03/19 01:40:38;;;;;;;34.50;18.42;;;;;;;5.01;65.40;98258.25;4992856;28;20026;-65
2022/03/19 01:43:03;;;;;;;32.72;18.67;;;;;;;5.01;65.17;98263.69;4994114;28;20084;-64
2022/03/19 01:45:29;;;;;;;35.75;19.58;;;;;;;4.94;65.75;98269.47;5003954;28;20081;-64
2022/03/19 01:47:55;;;;;;;37.42;21.15;;;;;;;4.96;65.78;98276.19;4992655;28;20061;-63
2022/03/19 01:50:22;;;;;;;37.38;20.20;;;;;;;4.97;65.50;98250.69;4992720;28;20065;-67
2022/03/19 01:52:48;;;;;;;34.50;18.25;;;;;;;4.93;66.04;98263.22;4991978;28;20085;-63
2022/03/19 01:55:17;;;;;;;38.40;19.23;;;;;;;4.98;65.24;98256.91;4980135;28;20030;-63
2022/03/19 01:57:44;;;;;;;36.15;19.08;;;;;;;4.92;65.87;98256.16;4992281;28;20029;-63
2022/03/19 02:00:16;;;;;;;40.13;19.13;;;;;;;4.89;66.12;98247.81;4978436;28;20042;-63
2022/03/19 02:02:43;;;;;;;34.35;19.30;;;;;;;4.83;66.39;98249.78;4977754;28;20082;-64
2022/03/19 02:05:14;;;;;;;35.78;19.00;;;;;;;4.83;66.47;98238.91;4981212;28;20066;-62
2022/03/19 02:07:40;;;;;;;40.70;21.58;;;;;;;4.75;67.32;98262.09;4972990;28;20516;-64
2022/03/19 02:10:07;;;;;;;40.65;22.40;;;;;;;4.79;66.49;98252.25;4973214;28;20034;-64
2022/03/19 02:12:32;;;;;;;38.20;21.23;;;;;;;4.79;66.11;98240.59;4988819;28;20030;-64
2022/03/19 02:14:58;;;;;;;35.67;20.83;;;;;;;4.77;66.49;98248.22;4992792;28;20509;-64
2022/03/19 02:17:24;;;;;;;37.17;22.13;;;;;;;4.86;65.41;98249.19;4992077;28;20038;-64
2022/03/19 02:19:52;;;;;;;41.00;20.50;;;;;;;4.73;66.75;98242.56;4992473;28;20034;-64
2022/03/19 02:22:18;;;;;;;38.38;19.80;;;;;;;4.76;66.60;98254.75;4992485;28;20109;-64
2022/03/19 02:27:29;;;;;;;36.65;21.45;;;;;;;4.73;66.40;98245.25;4991990;28;20077;-63
2022/03/19 02:29:56;;;;;;;41.72;21.00;;;;;;;4.79;65.68;98232.47;4990829;28;20431;-64
2022/03/19 02:32:22;;;;;;;37.85;21.67;;;;;;;4.83;65.47;98232.69;4992131;28;20431;-64
2022/03/19 02:34:48;;;;;;;33.85;20.70;;;;;;;4.85;64.83;98250.28;4992458;28;20399;-64
2022/03/19 02:37:13;;;;;;;37.88;21.60;;;;;;;4.82;65.04;98253.56;4991807;28;20030;-64
2022/03/19 02:39:38;;;;;;;36.38;21.02;;;;;;;4.77;65.17;98226.50;4992145;28;20042;-64
2022/03/19 02:42:06;;;;;;;37.70;23.33;;;;;;;4.85;64.69;98244.88;4992084;28;20391;-64
2022/03/19 02:44:32;;;;;;;35.40;20.90;;;;;;;4.86;64.62;98227.50;4991737;28;20104;-64
2022/03/19 02:47:03;;;;;;;38.90;19.90;;;;;;;4.75;65.34;98234.94;4991272;28;20045;-64
2022/03/19 02:49:29;;;;;;;38.65;22.13;;;;;;;4.74;65.47;98232.53;4991722;28;20383;-64
2022/03/19 02:51:55;;;;;;;41.75;21.63;;;;;;;4.68;65.82;98239.09;4991901;28;20034;-64
2022/03/19 02:54:27;;;;;;;41.65;22.17;;;;;;;4.67;66.11;98223.94;4991535;28;20026;-62
2022/03/19 02:56:53;;;;;;;42.33;22.23;;;;;;;4.60;66.87;98224.28;4991638;28;20129;-64
2022/03/19 02:59:26;;;;;;;37.63;21.75;;;;;;;4.62;66.56;98221.28;4991740;28;20034;-64
2022/03/19 03:01:57;;;;;;;39.50;21.73;;;;;;;4.62;66.63;98230.22;4991329;28;20038;-64
2022/03/19 03:04:23;;;;;;;38.50;22.83;;;;;;;4.72;65.66;98232.00;4992087;28;20053;-63
2022/03/19 03:06:52;;;;;;;40.53;23.92;;;;;;;4.70;66.11;98228.75;4991697;28;20034;-64
2022/03/19 03:09:19;;;;;;;44.75;25.20;;;;;;;4.53;67.61;98229.25;4991926;28;20422;-64
2022/03/19 03:11:45;;;;;;;43.83;22.73;;;;;;;4.46;68.41;98218.72;4992013;28;20442;-63
2022/03/19 03:14:10;;;;;;;44.78;19.92;;;;;;;4.51;68.52;98234.94;4991222;28;20125;-63
2022/03/19 03:16:38;;;;;;;47.00;23.52;;;;;;;4.31;70.07;98235.19;4991885;28;20069;-63
2022/03/19 03:19:06;;;;;;;44.95;25.27;;;;;;;4.33;69.67;98236.50;4991992;28;20039;-63
2022/03/19 03:21:35;;;;;;;48.28;25.27;;;;;;;4.35;70.26;98238.94;4992471;28;20045;-64
2022/03/19 03:24:02;;;;;;;49.25;27.33;;;;;;;4.32;70.94;98234.91;4991711;28;20506;-64
2022/03/19 03:26:29;;;;;;;49.28;25.55;;;;;;;4.24;71.70;98229.31;4992986;28;20045;-64
2022/03/19 03:28:56;;;;;;;53.78;26.77;;;;;;;4.24;72.46;98230.09;5003827;28;20030;-64
2022/03/19 03:31:22;;;;;;;50.95;29.45;;;;;;;4.23;72.84;98231.19;4996996;28;20026;-64
2022/03/19 03:33:47;;;;;;;54.53;28.80;;;;;;;4.11;74.22;98237.00;4992136;28;20495;-63
2022/03/19 03:36:13;;;;;;;52.78;28.48;;;;;;;4.02;74.74;98236.81;4992181;28;20072;-64
2022/03/19 03:38:39;;;;;;;56.00;31.13;;;;;;;4.08;75.45;98231.34;4992921;28;20034;-64
2022/03/19 03:41:05;;;;;;;56.17;29.48;;;;;;;4.14;74.96;98238.34;4991909;28;20484;-64
2022/03/19 03:43:30;;;;;;;55.63;30.75;;;;;;;4.10;75.37;98234.59;5000381;28;20499;-64
2022/03/19 03:45:56;;;;;;;54.25;29.13;;;;;;;4.12;75.96;98229.69;5009239;28;20110;-64
2022/03/19 03:48:21;;;;;;;64.03;33.03;;;;;;;3.94;77.63;98232.03;4997388;28;20471;-64
2022/03/19 03:50:51;;;;;;;61.58;33.08;;;;;;;3.96;77.85;98218.19;4986528;28;20391;-64
2022/03/19 03:53:17;;;;;;;68.65;35.50;;;;;;;3.89;78.92;98228.53;4999545;28;20069;-63
2022/03/19 03:55:44;;;;;;;62.25;32.70;;;;;;;3.86;79.52;98234.56;4989438;28;20030;-62
2022/03/19 03:58:11;;;;;;;67.30;32.83;;;;;;;3.82;79.76;98227.00;5000900;28;20030;-64
2022/03/19 04:00:36;;;;;;;65.45;34.83;;;;;;;3.78;80.16;98236.78;5011141;28;20634;-64
2022/03/19 04:03:03;;;;;;;66.32;32.67;;;;;;;3.82;80.07;98220.75;5011169;28;20051;-64
2022/03/19 04:05:29;;;;;;;72.47;35.45;;;;;;;3.79;80.13;98215.91;4999456;28;20084;-64
2022/03/19 04:07:55;;;;;;;66.90;34.33;;;;;;;3.79;80.20;98200.44;5007086;28;20034;-64
2022/03/19 04:10:20;;;;;;;68.70;35.45;;;;;;;3.88;80.02;98205.25;5007165;28;20483;-63
2022/03/19 04:12:46;;;;;;;60.45;30.65;;;;;;;3.81;79.78;98219.94;5001453;28;20030;-64
2022/03/19 04:15:12;;;;;;;69.75;35.33;;;;;;;3.81;79.67;98205.59;5014280;23;20062;-67
2022/03/19 04:17:38;;;;;;;64.50;35.55;;;;;;;3.86;79.43;98204.75;4996365;28;20501;-67
2022/03/19 04:20:05;;;;;;;66.43;32.95;;;;;;;3.77;80.77;98202.63;4993815;28;20046;-70
2022/03/19 04:22:39;;;;;;;75.40;36.88;;;;;;;3.71;80.97;98197.53;5003939;28;20169;-67
2022/03/19 04:25:11;;;;;;;69.00;38.35;;;;;;;3.76;80.41;98205.63;4994866;28;20030;-68
2022/03/19 04:27:37;;;;;;;64.93;35.53;;;;;;;3.74;80.51;98224.88;5005238;28;20518;-68
2022/03/19 04:30:03;;;;;;;73.90;36.80;;;;;;;3.68;81.45;98217.91;5004048;28;20111;-68
2022/03/19 04:32:28;;;;;;;67.00;36.63;;;;;;;3.67;81.42;98216.28;5000710;28;20034;-68
2022/03/19 04:34:54;;;;;;;71.03;39.40;;;;;;;3.71;80.76;98211.91;5002020;28;20442;-68
2022/03/19 04:37:19;;;;;;;69.30;34.05;;;;;;;3.64;81.63;98217.66;5002197;28;20123;-69
2022/03/19 04:39:44;;;;;;;70.40;34.92;;;;;;;3.63;81.16;98216.03;4995396;28;20367;-69
2022/03/19 04:42:10;;;;;;;68.60;37.08;;;;;;;3.72;80.48;98213.53;4996456;28;20518;-69
2022/03/19 04:44:36;;;;;;;70.60;35.75;;;;;;;3.61;81.39;98207.38;4994604;28;20038;-69
2022/03/19 04:47:01;;;;;;;73.88;34.90;;;;;;;3.62;81.52;98210.91;4993966;28;20030;-67
2022/03/19 04:49:27;;;;;;;70.90;40.00;;;;;;;3.62;81.27;98205.50;5001813;28;20145;-68
2022/03/19 04:51:52;;;;;;;70.05;36.13;;;;;;;3.64;81.37;98214.16;5002750;28;20042;-68
2022/03/19 04:54:20;;;;;;;70.20;34.45;;;;;;;3.55;82.11;98219.38;5012814;28;20037;-68
2022/03/19 04:56:46;;;;;;;71.82;33.40;;;;;;;3.52;82.06;98221.84;5013883;28;20513;-67
2022/03/19 04:59:14;;;;;;;78.88;36.20;;;;;;;3.48;82.42;98202.63;5013769;28;20053;-67
2022/03/19 05:01:39;;;;;;;69.85;35.55;;;;;;;3.52;81.94;98228.03;5014070;28;20030;-69
2022/03/19 05:04:06;;;;;;;71.72;34.60;;;;;;;3.55;81.93;98216.66;4995782;28;20042;-68
2022/03/19 05:06:31;;;;;;;66.80;34.15;;;;;;;3.55;82.08;98203.09;5001126;28;20103;-66
2022/03/19 05:11:41;;;;;;;75.65;36.70;;;;;;;3.50;83.05;98200.44;4994182;28;20109;-68
2022/03/19 05:14:07;;;;;;;74.07;38.85;;;;;;;3.42;83.60;98192.91;4994025;28;20026;-68
2022/03/19 05:16:33;;;;;;;76.07;37.95;;;;;;;3.43;83.76;98199.94;4995214;28;20034;-68
2022/03/19 05:18:58;;;;;;;73.28;35.38;;;;;;;3.39;83.98;98201.63;5001245;28;20038;-67
2022/03/19 05:21:23;;;;;;;83.03;40.15;;;;;;;3.31;84.54;98192.19;5005794;28;20160;-68
2022/03/19 05:23:49;;;;;;;81.60;42.95;;;;;;;3.33;85.22;98197.31;5011748;28;20462;-69
2022/03/19 05:26:14;;;;;;;83.95;39.10;;;;;;;3.22;86.19;98197.41;5024781;28;20053;-70
2022/03/19 05:28:40;;;;;;;82.13;41.33;;;;;;;3.25;85.68;98193.31;5037331;28;20116;-69
2022/03/19 05:31:08;;;;;;;83.88;39.70;;;;;;;3.16;87.55;98201.22;5011759;28;20046;-70
2022/03/19 05:34:29;;;;;;;82.30;38.88;;;;;;;3.15;88.07;98196.91;5006400;28;20022;-68
2022/03/19 05:36:31;;;;;;;89.50;45.65;;;;;;;3.09;89.07;98186.41;5014372;28;20037;-68
2022/03/19 05:38:56;;;;;;;91.38;39.90;;;;;;;3.04;88.99;98204.28;5013652;28;20080;-68
2022/03/19 05:41:21;;;;;;;83.63;44.20;;;;;;;3.04;88.95;98193.47;5005730;28;20394;-68
2022/03/19 05:43:47;;;;;;;87.03;41.80;;;;;;;3.12;88.79;98197.47;5007299;28;20033;-68
2022/03/19 05:46:12;;;;;;;93.82;44.42;;;;;;;3.02;89.82;98192.13;5002164;28;20384;-67
2022/03/19 05:48:37;;;;;;;90.97;42.08;;;;;;;3.04;89.93;98204.28;5005445;28;20026;-67
2022/03/19 05:51:04;;;;;;;88.88;47.78;;;;;;;3.04;90.22;98212.41;5012889;28;20144;-67
2022/03/19 05:53:29;;;;;;;85.07;43.67;;;;;;;3.06;89.80;98202.13;5000432;28;20233;-67
2022/03/19 05:55:55;;;;;;;89.22;43.92;;;;;;;3.09;89.95;98199.94;5001600;28;20069;-67
2022/03/19 05:58:20;;;;;;;86.20;48.53;;;;;;;3.10;90.14;98198.81;5007949;28;20033;-68
2022/03/19 06:00:46;;;;;;;92.53;44.25;;;;;;;3.13;89.88;98217.22;5002769;28;20026;-68
2022/03/19 06:03:11;;;;;;;88.22;46.08;;;;;;;3.09;90.71;98218.88;5001724;28;20033;-70
2022/03/19 06:05:36;;;;;;;88.57;42.53;;;;;;;3.21;90.74;98232.88;4992295;28;20034;-68
2022/03/19 06:08:04;;;;;;;90.63;42.45;;;;;;;3.17;90.24;98218.28;4993285;28;20065;-67
2022/03/19 06:10:29;;;;;;;90.15;43.85;;;;;;;3.08;90.42;98225.38;4997616;28;20037;-68
2022/03/19 06:12:54;;;;;;;91.03;41.92;;;;;;;3.17;90.58;98219.09;5005163;28;20054;-69
2022/03/19 06:15:20;;;;;;;89.13;41.08;;;;;;;3.27;89.70;98231.75;5006405;28;20042;-68
2022/03/19 06:17:45;;;;;;;90.15;43.38;;;;;;;3.43;88.74;98230.53;4999719;28;20031;-68
2022/03/19 06:20:11;;;;;;;90.47;42.35;;;;;;;3.44;87.66;98236.78;4993108;28;20371;-67
2022/03/19 06:22:40;;;;;;;86.40;42.47;;;;;;;3.57;87.12;98238.84;4993122;28;20033;-69
2022/03/19 06:25:06;;;;;;;84.87;42.50;;;;;;;3.45;87.84;98244.63;4993011;28;20037;-68
2022/03/19 06:27:34;;;;;;;86.57;39.45;;;;;;;4.00;85.97;98232.81;4989751;28;20034;-69
2022/03/19 06:29:59;;;;;;;83.20;40.65;;;;;;;3.85;85.13;98238.34;5009133;28;20093;-68
2022/03/19 06:32:25;;;;;;;84.00;41.58;;;;;;;3.79;85.36;98234.88;5012858;28;20037;-67
2022/03/19 06:34:50;;;;;;;84.43;41.10;;;;;;;3.95;84.85;98236.34;5012482;28;20522;-68
2022/03/19 06:37:22;;;;;;;86.05;40.17;;;;;;;4.03;83.92;98229.50;5012567;28;20034;-68
2022/03/19 06:39:55;;;;;;;80.32;40.72;;;;;;;3.85;84.29;98231.03;5012806;28;20394;-68
2022/03/19 06:42:21;;;;;;;78.60;39.58;;;;;;;4.22;83.22;98237.72;5004995;28;20040;-71
2022/03/19 06:44:47;;;;;;;77.82;41.13;;;;;;;4.13;82.23;98226.69;5031726;28;20037;-71
2022/03/19 06:47:13;;;;;;;81.22;39.88;;;;;;;4.33;81.64;98239.22;5031499;28;20056;-70
2022/03/19 06:49:38;;;;;;;78.28;36.97;;;;;;;4.19;81.86;98224.72;5030597;28;20026;-70
2022/03/19 06:52:04;;;;;;;79.43;38.17;;;;;;;4.46;81.28;98234.22;5029076;28;20109;-69
2022/03/19 06:54:30;;;;;;;85.82;41.10;;;;;;;4.48;80.99;98227.38;5014382;28;20037;-70
2022/03/19 06:56:55;;;;;;;74.93;37.70;;;;;;;4.62;79.77;98227.50;4997096;28;20533;-71
2022/03/19 06:59:20;;;;;;;73.75;36.83;;;;;;;5.08;76.91;98221.47;5006542;28;20099;-68
2022/03/19 07:01:46;;;;;;;75.28;37.03;;;;;;;5.34;75.48;98223.81;5012803;28;20374;-70
2022/03/19 07:04:12;;;;;;;73.43;37.08;;;;;;;5.48;75.86;98221.97;5015235;28;20038;-69
2022/03/19 07:06:37;;;;;;;73.47;35.67;;;;;;;5.20;75.84;98215.59;5014355;28;20037;-68
2022/03/19 07:09:06;;;;;;;75.32;37.45;;;;;;;4.89;77.58;98216.03;5013290;28;20030;-68
2022/03/19 07:11:32;;;;;;;72.72;34.15;;;;;;;5.10;76.52;98213.03;5000115;28;20103;-68
2022/03/19 07:13:58;;;;;;;68.63;35.03;;;;;;;5.43;74.93;98216.59;5003459;28;20029;-67
2022/03/19 07:16:23;;;;;;;67.57;36.15;;;;;;;5.02;75.80;98214.47;5002532;28;20069;-68
2022/03/19 07:18:49;;;;;;;69.07;34.38;;;;;;;5.38;74.26;98205.81;5003455;28;20054;-69
2022/03/19 07:21:16;;;;;;;69.32;38.67;;;;;;;5.21;73.59;98211.78;4995832;28;20038;-68
2022/03/19 07:23:42;;;;;;;66.65;33.95;;;;;;;5.24;74.52;98211.19;4998324;28;20030;-68
2022/03/19 07:26:07;;;;;;;70.97;35.50;;;;;;;5.59;72.92;98206.31;4991989;28;20030;-68
2022/03/19 07:28:33;;;;;;;66.55;34.90;;;;;;;5.60;72.47;98207.09;4993493;28;20030;-69
2022/03/19 07:30:58;;;;;;;60.05;31.13;;;;;;;5.85;71.79;98200.41;4992632;28;20372;-68
2022/03/19 07:33:24;;;;;;;65.10;34.08;;;;;;;5.59;73.08;98210.94;4993776;28;20053;-69
2022/03/19 07:35:49;;;;;;;67.00;35.08;;;;;;;5.61;72.45;98206.81;4999536;28;20026;-68
2022/03/19 07:38:14;;;;;;;61.83;31.75;;;;;;;5.80;71.59;98204.06;5010005;28;20486;-68
2022/03/19 07:43:25;;;;;;;65.80;33.47;;;;;;;6.47;68.06;98198.19;5011490;28;20042;-68
2022/03/19 07:45:52;;;;;;;60.95;33.40;;;;;;;6.52;67.55;98183.69;5010463;28;20429;-68
2022/03/19 07:48:18;;;;;;;66.85;32.15;;;;;;;6.26;69.04;98191.56;5001738;28;20491;-68
2022/03/19 07:50:44;;;;;;;65.78;34.65;;;;;;;5.79;70.75;98179.88;5003722;28;20040;-68
2022/03/19 07:53:10;;;;;;;69.32;34.20;;;;;;;6.02;70.82;98194.47;4996015;28;20114;-69
2022/03/19 07:55:35;;;;;;;63.28;34.72;;;;;;;6.30;69.42;98192.56;4995875;28;20041;-69
2022/03/19 07:58:01;;;;;;;62.55;31.25;;;;;;;6.31;69.18;98173.19;5000717;28;20511;-68
2022/03/19 08:00:27;;;;;;;68.43;34.20;;;;;;;6.51;68.46;98176.63;5007174;28;20479;-68
2022/03/19 08:02:52;;;;;;;66.45;31.05;;;;;;;6.27;68.29;98180.38;4995911;28;20380;-70
2022/03/19 08:05:18;;;;;;;62.38;31.85;;;;;;;6.56;68.45;98181.97;4994531;28;20061;-68
2022/03/19 08:07:44;;;;;;;60.80;31.95;;;;;;;6.48;69.06;98194.38;5004888;28;20026;-68
2022/03/19 08:10:11;;;;;;;63.60;35.25;;;;;;;6.09;69.08;98167.66;5017304;28;20054;-68
2022/03/19 08:12:38;;;;;;;63.97;34.33;;;;;;;6.42;68.46;98173.81;5003892;28;20039;-68
2022/03/19 08:15:05;;;;;;;71.65;33.92;;;;;;;6.62;67.15;98180.75;5011642;28;20088;-67
2022/03/19 08:17:31;;;;;;;67.28;34.05;;;;;;;6.50;68.01;98185.94;5014410;28;20053;-68
2022/03/19 08:19:59;;;;;;;61.38;33.13;;;;;;;6.56;67.37;98167.56;5005219;28;20034;-69
2022/03/19 08:22:26;;;;;;;59.63;33.40;;;;;;;6.88;65.15;98155.72;4994689;28;20026;-70
2022/03/19 08:24:52;;;;;;;63.10;33.90;;;;;;;6.28;66.91;98146.63;4993524;28;20165;-68
2022/03/19 08:27:18;;;;;;;54.50;30.27;;;;;;;6.78;65.50;98155.94;4995582;28;20101;-69
2022/03/19 08:29:43;;;;;;;63.35;33.92;;;;;;;6.94;65.90;98157.19;4995277;28;20109;-70
2022/03/19 08:32:10;;;;;;;63.38;33.10;;;;;;;6.84;65.15;98144.63;4994974;28;20034;-69
2022/03/19 08:34:36;;;;;;;65.60;35.15;;;;;;;6.83;65.13;98153.09;4999234;28;20065;-69
2022/03/19 08:37:02;;;;;;;60.28;33.63;;;;;;;6.83;65.32;98155.81;5006341;28;20057;-68
2022/03/19 08:42:11;;;;;;;61.05;32.05;;;;;;;7.36;63.82;98160.56;5019801;28;20030;-69
2022/03/19 08:44:37;;;;;;;60.28;30.70;;;;;;;7.35;64.59;98156.25;5027949;28;20498;-69
2022/03/19 08:47:02;;;;;;;57.05;31.95;;;;;;;7.29;63.65;98157.47;5015983;28;20036;-69
2022/03/19 08:49:28;;;;;;;59.95;32.13;;;;;;;7.56;63.77;98164.75;5014977;28;20044;-71
2022/03/19 08:51:53;;;;;;;55.63;31.42;;;;;;;7.46;63.47;98154.06;5023286;28;20030;-70
2022/03/19 08:54:19;;;;;;;57.25;31.20;;;;;;;7.26;63.28;98148.00;5024311;28;20049;-70
2022/03/19 08:56:47;;;;;;;66.25;30.52;;;;;;;7.55;62.61;98141.31;5010585;28;20394;-68
2022/03/19 08:59:16;;;;;;;58.05;30.25;;;;;;;7.53;62.52;98157.16;4995006;28;20038;-71
2022/03/19 09:01:42;;;;;;;57.78;31.58;;;;;;;7.60;61.75;98156.75;4983489;28;20035;-71
2022/03/19 09:04:07;;;;;;;55.78;29.92;;;;;;;8.15;60.44;98159.09;4979368;28;20052;-70
2022/03/19 09:06:34;;;;;;;54.25;28.67;;;;;;;8.21;60.88;98152.38;4991142;28;20129;-70
2022/03/19 09:09:02;;;;;;;54.78;31.65;;;;;;;7.71;60.71;98141.72;4991839;28;20042;-71
2022/03/19 09:11:28;;;;;;;51.05;28.58;;;;;;;8.06;59.97;98162.91;4961717;28;20138;-70
2022/03/19 09:13:53;;;;;;;57.45;30.25;;;;;;;7.86;59.22;98148.69;4965503;28;20435;-69
2022/03/19 09:16:19;;;;;;;52.53;30.88;;;;;;;7.80;59.32;98123.47;4963809;28;20555;-69
2022/03/19 09:18:45;;;;;;;55.95;27.88;;;;;;;8.29;58.39;98148.06;4992009;28;20503;-71
2022/03/19 09:21:11;;;;;;;49.30;28.63;;;;;;;8.34;57.31;98131.56;4983464;28;20042;-69
2022/03/19 09:23:37;;;;;;;50.08;28.50;;;;;;;8.08;58.85;98145.09;5009065;28;20110;-70
2022/03/19 09:26:02;;;;;;;52.08;28.58;;;;;;;8.47;58.19;98148.16;4983127;28;20051;-71
2022/03/19 09:28:28;;;;;;;48.00;26.92;;;;;;;8.71;57.72;98153.19;5017308;28;20098;-70
2022/03/19 09:30:53;;;;;;;49.38;26.85;;;;;;;9.03;56.00;98132.00;5027160;28;20044;-70
2022/03/19 09:33:19;;;;;;;45.13;25.00;;;;;;;9.30;54.70;98144.53;5017806;28;20050;-70
2022/03/19 09:35:45;;;;;;;42.53;23.45;;;;;;;10.29;51.84;98138.16;5017375;28;20038;-69
2022/03/19 09:38:14;;;;;;;44.33;25.58;;;;;;;9.53;52.87;98135.03;5002263;28;20042;-69
2022/03/19 09:40:41;;;;;;;49.20;27.60;;;;;;;9.17;53.31;98127.19;4990620;28;20495;-68
2022/03/19 09:43:07;;;;;;;51.47;30.27;;;;;;;8.58;53.49;98120.22;5002406;28;20052;-68
2022/03/19 09:45:34;;;;;;;44.65;25.67;;;;;;;8.86;55.14;98119.13;5007251;28;20045;-69
2022/03/19 09:48:00;;;;;;;48.60;28.08;;;;;;;9.23;53.24;98127.81;5003865;28;20061;-69
2022/03/19 09:50:26;;;;;;;44.03;24.63;;;;;;;9.50;54.00;98134.88;5012964;28;20063;-69
2022/03/19 09:52:57;;;;;;;43.08;27.02;;;;;;;8.79;51.79;98131.34;5026132;28;20046;-71
2022/03/19 09:55:26;;;;;;;46.35;25.25;;;;;;;9.49;51.45;98119.56;4982741;28;20054;-68
2022/03/19 09:57:56;;;;;;;45.72;27.73;;;;;;;9.19;52.66;98108.53;4990422;28;20050;-70
2022/03/19 10:00:22;;;;;;;44.83;26.50;;;;;;;10.27;51.60;98127.53;4985139;28;20042;-69
2022/03/19 10:02:53;;;;;;;46.22;26.23;;;;;;;9.64;52.27;98110.06;4983662;28;20049;-68
2022/03/19 10:10:49;;;;;;;44.70;24.75;;;;;;;10.43;48.73;98119.59;4988249;28;20049;-68
2022/03/19 10:13:15;;;;;;;42.05;25.50;;;;;;;10.31;47.71;98116.75;4977944;28;20050;-71
2022/03/19 10:15:41;;;;;;;46.67;27.63;;;;;;;9.26;48.86;98102.59;5019299;23;20050;-67
2022/03/19 10:18:08;;;;;;;41.42;24.35;;;;;;;9.71;48.72;98108.44;4995732;28;20046;-67
2022/03/19 10:20:36;;;;;;;47.17;26.38;;;;;;;10.08;47.52;98105.22;5000578;28;20089;-67
2022/03/19 10:23:03;;;;;;;42.45;24.30;;;;;;;10.04;47.55;98107.81;5001469;28;20100;-67
2022/03/19 10:25:30;;;;;;;43.45;24.35;;;;;;;9.65;48.08;98101.53;4999130;28;20129;-66
2022/03/19 10:28:08;;;;;;;43.33;25.65;;;;;;;9.64;47.81;98108.13;4999558;28;20034;-66
2022/03/19 10:30:39;;;;;;;45.90;25.73;;;;;;;9.81;47.45;98107.25;4992369;28;20469;-67
2022/03/19 10:33:08;;;;;;;43.55;25.67;;;;;;;9.59;49.58;98111.03;4996741;28;20073;-67
2022/03/19 10:35:42;;;;;;;45.17;24.48;;;;;;;10.42;48.21;98096.06;5001065;28;20041;-67
2022/03/19 10:38:23;;;;;;;42.10;23.70;;;;;;;10.83;46.76;98097.25;4996444;28;20053;-67
2022/03/19 10:40:51;;;;;;;45.22;25.60;;;;;;;10.94;43.89;98083.16;4999016;28;20113;-67
2022/03/19 10:43:19;;;;;;;41.63;23.58;;;;;;;11.41;43.47;98071.91;4996263;28;20111;-66
2022/03/19 10:45:48;;;;;;;44.17;24.73;;;;;;;10.78;46.20;98061.81;5001414;28;20482;-68
2022/03/19 10:48:18;;;;;;;39.45;22.88;;;;;;;10.73;44.98;98047.53;4994604;28;20072;-67
2022/03/19 10:50:44;;;;;;;41.03;23.17;;;;;;;11.02;45.20;98047.44;5001252;28;20124;-67
2022/03/19 10:53:11;;;;;;;40.97;22.67;;;;;;;10.11;45.35;98034.19;4996075;28;20093;-67
2022/03/19 10:55:36;;;;;;;42.30;22.83;;;;;;;10.94;45.79;98036.56;5000462;28;20042;-66
2022/03/19 10:58:02;;;;;;;41.20;22.45;;;;;;;10.88;45.06;98030.47;5001193;28;20046;-65
2022/03/19 11:00:28;;;;;;;41.47;23.35;;;;;;;10.51;46.33;98031.09;4999252;28;20046;-66
2022/03/19 11:02:57;;;;;;;42.30;23.42;;;;;;;10.56;44.32;98027.34;4997741;28;20042;-68
2022/03/19 11:05:25;;;;;;;39.63;23.77;;;;;;;10.33;45.49;98026.84;4993867;28;20054;-67
2022/03/19 11:07:51;;;;;;;38.42;24.13;;;;;;;10.12;46.15;98015.88;5000352;28;20041;-67
2022/03/19 11:10:19;;;;;;;44.08;24.15;;;;;;;10.00;45.81;98029.44;4995802;28;20046;-67
2022/03/19 11:12:50;;;;;;;41.78;24.45;;;;;;;10.29;46.08;98023.16;4998338;28;20037;-67
2022/03/19 11:15:17;;;;;;;43.08;24.92;;;;;;;10.11;46.72;98019.72;4994761;28;20216;-65
2022/03/19 11:17:45;;;;;;;42.13;23.23;;;;;;;10.15;46.41;98015.19;5001156;28;20091;-68
2022/03/19 11:20:12;;;;;;;44.50;23.42;;;;;;;10.61;44.34;98004.44;4994677;28;20049;-68
2022/03/19 11:22:52;;;;;;;41.20;22.00;;;;;;;11.18;44.04;98006.47;5001029;28;20045;-68
2022/03/19 11:25:38;;;;;;;41.80;22.52;;;;;;;10.96;42.81;98015.88;4995047;28;20075;-68
2022/03/19 11:28:07;;;;;;;38.17;21.60;;;;;;;11.41;43.11;98006.06;4987008;28;20058;-65
2022/03/19 11:30:35;;;;;;;36.63;20.98;;;;;;;11.77;40.21;97999.03;4999097;28;20061;-67
2022/03/19 11:33:31;;;;;;;37.30;21.17;;;;;;;11.00;40.38;97985.84;5000355;28;20049;-66
2022/03/19 11:36:00;;;;;;;35.17;21.95;;;;;;;10.61;42.90;97974.28;4991050;28;20303;-67
2022/03/19 11:38:26;;;;;;;36.60;21.67;;;;;;;11.17;42.18;97984.88;5005287;28;20136;-65